createdAt,value
2022-11-29T00:00:19.836Z,29.834
2022-11-29T00:05:17.863Z,29.838
2022-11-29T00:10:19.915Z,29.843
2022-11-29T00:15:19.862Z,29.847
2022-11-29T00:20:16.888Z,29.855
2022-11-29T00:25:16.890Z,29.859
2022-11-29T00:30:19.843Z,29.864
2022-11-29T00:35:21.027Z,29.866
2022-11-29T00:40:19.892Z,29.867
2022-11-29T00:45:19.867Z,29.870
2022-11-29T00:50:16.907Z,29.874
2022-11-29T00:55:16.938Z,29.877
2022-11-29T01:00:19.890Z,29.880
2022-11-29T01:05:20.053Z,29.885
2022-11-29T01:10:21.065Z,29.885
2022-11-29T01:15:16.935Z,29.888
2022-11-29T01:20:19.901Z,29.890
2022-11-29T01:25:19.900Z,29.894
2022-11-29T01:30:19.926Z,29.897
2022-11-29T01:35:19.852Z,29.900
2022-11-29T01:40:16.966Z,29.905
2022-11-29T01:45:21.503Z,29.907
2022-11-29T01:50:19.897Z,29.912
2022-11-29T01:55:19.926Z,29.913
2022-11-29T02:00:16.896Z,29.918
2022-11-29T02:05:19.898Z,29.918
2022-11-29T02:10:16.800Z,29.922
2022-11-29T02:15:16.932Z,29.926
2022-11-29T02:20:18.085Z,29.930
2022-11-29T02:25:19.907Z,29.932
2022-11-29T02:30:19.880Z,29.934
2022-11-29T02:35:19.944Z,29.934
2022-11-29T02:40:19.943Z,29.933
2022-11-29T02:45:19.905Z,29.935
2022-11-29T02:50:16.737Z,29.938
2022-11-29T02:55:21.105Z,29.942
2022-11-29T03:00:16.969Z,29.945
2022-11-29T03:05:16.937Z,29.945
2022-11-29T03:10:19.951Z,29.949
2022-11-29T03:15:19.946Z,29.953
2022-11-29T03:20:19.924Z,29.957
2022-11-29T03:25:19.935Z,29.960
2022-11-29T03:30:21.874Z,29.961
2022-11-29T03:35:19.973Z,29.965
2022-11-29T03:40:19.948Z,29.968
2022-11-29T03:45:17.011Z,29.968
2022-11-29T03:50:19.977Z,29.972
2022-11-29T03:55:19.955Z,29.975
2022-11-29T04:00:19.955Z,29.977
2022-11-29T04:05:20.995Z,29.979
2022-11-29T04:10:16.964Z,29.982
2022-11-29T04:15:17.031Z,29.984
2022-11-29T04:20:19.974Z,29.989
2022-11-29T04:25:19.967Z,29.989
2022-11-29T04:30:19.995Z,29.990
2022-11-29T04:35:16.991Z,29.991
2022-11-29T04:40:18.206Z,29.993
2022-11-29T04:45:19.979Z,29.998
2022-11-29T04:50:16.776Z,30.000
2022-11-29T04:55:26.388Z,29.999
2022-11-29T05:00:16.244Z,30.005
2022-11-29T05:05:19.231Z,30.007
2022-11-29T05:10:20.271Z,30.007
2022-11-29T05:15:19.252Z,30.007
2022-11-29T05:20:19.200Z,30.008
2022-11-29T05:25:16.272Z,30.010
2022-11-29T05:30:19.287Z,30.010
2022-11-29T05:35:19.270Z,30.010
2022-11-29T05:40:19.251Z,30.013
2022-11-29T05:45:17.438Z,30.016
2022-11-29T05:50:31.154Z,30.020
2022-11-29T05:55:19.287Z,30.020
2022-11-29T06:00:19.240Z,30.022
2022-11-29T06:05:16.273Z,30.022
2022-11-29T06:10:19.271Z,30.025
2022-11-29T06:15:20.393Z,30.026
2022-11-29T06:20:19.250Z,30.028
2022-11-29T06:25:16.363Z,30.030
2022-11-29T06:30:19.291Z,30.030
2022-11-29T06:35:19.298Z,30.035
2022-11-29T06:40:16.284Z,30.039
2022-11-29T06:45:16.109Z,30.039
2022-11-29T06:50:20.471Z,30.042
2022-11-29T06:55:16.282Z,30.045
2022-11-29T07:00:16.327Z,30.044
2022-11-29T07:05:19.394Z,30.049
2022-11-29T07:10:16.285Z,30.051
2022-11-29T07:15:19.294Z,30.058
2022-11-29T07:20:19.263Z,30.059
2022-11-29T07:25:17.474Z,30.061
2022-11-29T07:30:19.304Z,30.066
2022-11-29T07:35:19.286Z,30.070
2022-11-29T07:40:19.303Z,30.075
2022-11-29T07:45:19.317Z,30.075
2022-11-29T07:50:19.307Z,30.076
2022-11-29T07:55:18.975Z,30.080
2022-11-29T08:00:20.886Z,30.082
2022-11-29T08:05:16.331Z,30.080
2022-11-29T08:10:16.305Z,30.083
2022-11-29T08:15:19.357Z,30.089
2022-11-29T08:20:19.329Z,30.091
2022-11-29T08:25:19.315Z,30.096
2022-11-29T08:30:19.271Z,30.096
2022-11-29T08:35:17.380Z,30.103
2022-11-29T08:40:19.334Z,30.104
2022-11-29T08:45:19.361Z,30.108
2022-11-29T08:50:16.393Z,30.112
2022-11-29T08:55:19.316Z,30.118
2022-11-29T09:00:19.303Z,30.118
2022-11-29T09:05:20.563Z,30.120
2022-11-29T09:10:16.337Z,30.122
2022-11-29T09:15:16.364Z,30.123
2022-11-29T09:20:19.331Z,30.121
2022-11-29T09:25:16.391Z,30.125
2022-11-29T09:30:22.132Z,30.127
2022-11-29T09:35:19.400Z,30.132
2022-11-29T09:40:17.435Z,30.136
2022-11-29T09:45:19.370Z,30.137
2022-11-29T09:50:16.382Z,30.141
2022-11-29T09:55:19.385Z,30.141
2022-11-29T10:00:16.362Z,30.138
2022-11-29T10:05:16.427Z,30.136
2022-11-29T10:10:20.509Z,30.139
2022-11-29T10:15:19.506Z,30.140
2022-11-29T10:20:19.370Z,30.143
2022-11-29T10:25:16.392Z,30.149
2022-11-29T10:30:19.371Z,30.151
2022-11-29T10:35:19.360Z,30.152
2022-11-29T10:40:19.399Z,30.154
2022-11-29T10:45:17.568Z,30.158
2022-11-29T10:50:19.437Z,30.156
2022-11-29T10:55:19.361Z,30.167
2022-11-29T11:00:19.465Z,30.165
2022-11-29T11:05:19.501Z,30.175
2022-11-29T11:10:19.418Z,30.180
2022-11-29T11:15:20.469Z,30.180
2022-11-29T11:20:16.394Z,30.175
2022-11-29T11:25:19.381Z,30.178
2022-11-29T11:30:19.423Z,30.179
2022-11-29T11:35:18.544Z,30.181
2022-11-29T11:40:16.276Z,30.190
2022-11-29T11:45:19.437Z,30.193
2022-11-29T11:50:17.663Z,30.193
2022-11-29T11:55:16.423Z,30.195
2022-11-29T12:00:40.628Z,30.195
2022-11-29T12:05:19.454Z,30.194
2022-11-29T12:10:19.385Z,30.194
2022-11-29T12:15:16.438Z,30.194
2022-11-29T12:20:20.623Z,30.194
2022-11-29T12:25:19.434Z,30.201
2022-11-29T12:30:19.413Z,30.208
2022-11-29T12:35:19.391Z,30.212
2022-11-29T12:40:19.439Z,30.210
2022-11-29T12:45:19.483Z,30.211
2022-11-29T12:50:16.436Z,30.214
2022-11-29T12:55:17.615Z,30.214
2022-11-29T13:00:16.299Z,30.208
2022-11-29T13:05:19.421Z,30.214
2022-11-29T13:10:19.511Z,30.222
2022-11-29T13:15:19.476Z,30.223
2022-11-29T13:20:16.467Z,30.215
2022-11-29T13:25:20.677Z,30.227
2022-11-29T13:30:19.416Z,30.227
2022-11-29T13:35:19.459Z,30.228
2022-11-29T13:40:19.479Z,30.228
2022-11-29T13:45:19.441Z,30.239
2022-11-29T13:50:19.448Z,30.245
2022-11-29T13:55:19.436Z,30.244
2022-11-29T14:00:17.667Z,30.243
2022-11-29T14:05:16.521Z,30.246
2022-11-29T14:10:28.379Z,30.251
2022-11-29T14:18:43.085Z,30.250
2022-11-29T14:20:16.517Z,30.252
2022-11-29T14:25:49.024Z,30.255
2022-11-29T14:30:16.604Z,30.254
2022-11-29T14:35:19.481Z,30.256
2022-11-29T14:40:19.535Z,30.260
2022-11-29T14:45:16.541Z,30.262
2022-11-29T14:50:19.530Z,30.264
2022-11-29T14:55:19.481Z,30.258
2022-11-29T15:00:16.570Z,30.260
2022-11-29T15:05:16.529Z,30.260
2022-11-29T15:10:19.503Z,30.260
2022-11-29T15:15:19.496Z,30.261
2022-11-29T15:20:19.461Z,30.267
2022-11-29T15:25:19.494Z,30.267
2022-11-29T15:30:19.459Z,30.269
2022-11-29T15:35:19.498Z,30.266
2022-11-29T15:40:16.537Z,30.263
2022-11-29T15:45:19.544Z,30.262
2022-11-29T15:50:19.531Z,30.266
2022-11-29T15:55:19.473Z,30.271
2022-11-29T16:00:19.575Z,30.273
2022-11-29T16:05:19.528Z,30.269
2022-11-29T16:10:19.534Z,30.272
2022-11-29T16:15:16.570Z,30.272
2022-11-29T16:20:19.487Z,30.267
2022-11-29T16:25:16.556Z,30.265
2022-11-29T16:30:16.601Z,30.263
2022-11-29T16:35:16.565Z,30.262
2022-11-29T16:40:19.550Z,30.258
2022-11-29T16:45:19.526Z,30.260
2022-11-29T16:50:19.538Z,30.262
2022-11-29T16:55:19.601Z,30.260
2022-11-29T17:00:19.548Z,30.260
2022-11-29T17:05:19.555Z,30.261
2022-11-29T17:10:19.554Z,30.258
2022-11-29T17:15:19.560Z,30.255
2022-11-29T17:20:19.557Z,30.260
2022-11-29T17:25:19.522Z,30.257
2022-11-29T17:30:19.546Z,30.261
2022-11-29T17:35:19.550Z,30.260
2022-11-29T17:40:19.593Z,30.257
2022-11-29T17:45:19.566Z,30.255
2022-11-29T17:50:19.515Z,30.250
2022-11-29T17:55:20.954Z,30.247
2022-11-29T18:00:19.558Z,30.242
2022-11-29T18:05:16.579Z,30.241
2022-11-29T18:10:19.573Z,30.240
2022-11-29T18:15:19.610Z,30.234
2022-11-29T18:20:19.543Z,30.236
2022-11-29T18:25:38.151Z,30.229
2022-11-29T18:30:16.695Z,30.226
2022-11-29T18:35:19.590Z,30.222
2022-11-29T18:40:16.592Z,30.224
2022-11-29T18:45:19.616Z,30.223
2022-11-29T18:50:16.622Z,30.223
2022-11-29T18:55:16.601Z,30.225
2022-11-29T19:00:19.666Z,30.230
2022-11-29T19:05:16.654Z,30.229
2022-11-29T19:10:16.626Z,30.230
2022-11-29T19:15:19.602Z,30.229
2022-11-29T19:20:19.768Z,30.231
2022-11-29T19:25:19.623Z,30.235
2022-11-29T19:30:19.575Z,30.236
2022-11-29T19:35:16.544Z,30.240
2022-11-29T19:40:19.604Z,30.242
2022-11-29T19:45:19.659Z,30.244
2022-11-29T19:50:19.582Z,30.238
2022-11-29T19:55:16.639Z,30.238
2022-11-29T20:00:19.660Z,30.239
2022-11-29T20:05:16.624Z,30.241
2022-11-29T20:10:19.634Z,30.243
2022-11-29T20:15:19.585Z,30.242
2022-11-29T20:20:19.686Z,30.245
2022-11-29T20:25:16.714Z,30.250
2022-11-29T20:30:19.604Z,30.251
2022-11-29T20:35:19.631Z,30.254
2022-11-29T20:40:16.704Z,30.258
2022-11-29T20:45:16.642Z,30.259
2022-11-29T20:50:20.499Z,30.261
2022-11-29T20:55:16.541Z,30.260
2022-11-29T21:00:19.642Z,30.261
2022-11-29T21:05:19.684Z,30.263
2022-11-29T21:10:19.663Z,30.263
2022-11-29T21:15:19.672Z,30.265
2022-11-29T21:20:19.640Z,30.262
2022-11-29T21:25:19.646Z,30.261
2022-11-29T21:30:19.629Z,30.263
2022-11-29T21:35:19.657Z,30.262
2022-11-29T21:40:19.627Z,30.269
2022-11-29T21:45:19.659Z,30.269
2022-11-29T21:50:19.686Z,30.271
2022-11-29T21:55:16.690Z,30.274
2022-11-29T22:00:16.717Z,30.274
2022-11-29T22:05:16.726Z,30.271
2022-11-29T22:10:19.661Z,30.272
2022-11-29T22:15:21.515Z,30.279
2022-11-29T22:20:19.689Z,30.280
2022-11-29T22:25:19.682Z,30.279
2022-11-29T22:30:19.630Z,30.276
2022-11-29T22:35:19.693Z,30.276
2022-11-29T22:40:19.659Z,30.278
2022-11-29T22:45:16.691Z,30.284
2022-11-29T22:50:19.739Z,30.282
2022-11-29T22:55:16.666Z,30.279
2022-11-29T23:00:19.689Z,30.276
2022-11-29T23:05:19.734Z,30.277
2022-11-29T23:10:19.646Z,30.275
2022-11-29T23:15:16.767Z,30.280
2022-11-29T23:20:16.743Z,30.282
2022-11-29T23:25:16.712Z,30.284
2022-11-29T23:30:16.753Z,30.281
2022-11-29T23:35:16.732Z,30.282
2022-11-29T23:40:19.758Z,30.283
2022-11-29T23:45:19.692Z,30.280
2022-11-29T23:50:19.725Z,30.276
2022-11-29T23:55:19.708Z,30.274
